sensor_id;sensor_type;location;lat;lon;timestamp;P1;durP1;ratioP1;P2;durP2;ratioP2
48522;SDS011;34315;50.150;11.070;2023-04-03T00:00:06;5.22;;;2.08;;
48522;SDS011;34315;50.150;11.070;2023-04-03T00:05:08;19.02;;;7.80;;
48522;SDS011;34315;50.150;11.070;2023-04-03T00:10:09;4.95;;;2.30;;
48522;SDS011;34315;50.150;11.070;2023-04-03T00:15:11;4.75;;;2.00;;
48522;SDS011;34315;50.150;11.070;2023-04-03T00:20:12;6.72;;;2.10;;
48522;SDS011;34315;50.150;11.070;2023-04-03T00:25:13;5.57;;;2.35;;
48522;SDS011;34315;50.150;11.070;2023-04-03T00:30:15;5.53;;;2.60;;
48522;SDS011;34315;50.150;11.070;2023-04-03T00:35:18;4.82;;;2.20;;
48522;SDS011;34315;50.150;11.070;2023-04-03T00:40:20;5.57;;;2.60;;
48522;SDS011;34315;50.150;11.070;2023-04-03T00:45:31;3.92;;;2.28;;
48522;SDS011;34315;50.150;11.070;2023-04-03T00:50:35;5.18;;;2.78;;
48522;SDS011;34315;50.150;11.070;2023-04-03T00:55:38;4.45;;;2.28;;
48522;SDS011;34315;50.150;11.070;2023-04-03T01:00:40;6.85;;;2.40;;
48522;SDS011;34315;50.150;11.070;2023-04-03T01:05:44;5.10;;;2.13;;
48522;SDS011;34315;50.150;11.070;2023-04-03T01:10:45;5.50;;;2.10;;
48522;SDS011;34315;50.150;11.070;2023-04-03T01:15:48;5.03;;;2.10;;
48522;SDS011;34315;50.150;11.070;2023-04-03T01:21:05;4.63;;;2.15;;
48522;SDS011;34315;50.150;11.070;2023-04-03T01:26:18;4.50;;;2.50;;
48522;SDS011;34315;50.150;11.070;2023-04-03T01:31:28;4.30;;;2.33;;
48522;SDS011;34315;50.150;11.070;2023-04-03T01:36:31;4.88;;;2.58;;
48522;SDS011;34315;50.150;11.070;2023-04-03T01:41:33;5.32;;;2.40;;
48522;SDS011;34315;50.150;11.070;2023-04-03T01:46:43;6.57;;;2.83;;
48522;SDS011;34315;50.150;11.070;2023-04-03T01:51:44;5.70;;;2.40;;
48522;SDS011;34315;50.150;11.070;2023-04-03T01:56:45;5.38;;;2.60;;
48522;SDS011;34315;50.150;11.070;2023-04-03T02:01:47;8.98;;;2.95;;
48522;SDS011;34315;50.150;11.070;2023-04-03T02:06:48;7.70;;;2.70;;
48522;SDS011;34315;50.150;11.070;2023-04-03T02:11:49;4.72;;;2.50;;
48522;SDS011;34315;50.150;11.070;2023-04-03T02:16:50;7.28;;;2.53;;
48522;SDS011;34315;50.150;11.070;2023-04-03T02:21:51;5.28;;;2.55;;
48522;SDS011;34315;50.150;11.070;2023-04-03T02:26:53;7.70;;;2.10;;
48522;SDS011;34315;50.150;11.070;2023-04-03T02:31:54;6.28;;;2.70;;
48522;SDS011;34315;50.150;11.070;2023-04-03T02:36:57;6.05;;;2.05;;
48522;SDS011;34315;50.150;11.070;2023-04-03T02:41:59;7.95;;;2.72;;
48522;SDS011;34315;50.150;11.070;2023-04-03T02:47:01;7.70;;;2.30;;
48522;SDS011;34315;50.150;11.070;2023-04-03T02:52:03;6.25;;;2.65;;
48522;SDS011;34315;50.150;11.070;2023-04-03T02:57:04;5.15;;;2.08;;
48522;SDS011;34315;50.150;11.070;2023-04-03T03:02:09;8.88;;;2.25;;
48522;SDS011;34315;50.150;11.070;2023-04-03T03:07:10;5.70;;;2.47;;
48522;SDS011;34315;50.150;11.070;2023-04-03T03:12:11;5.18;;;2.20;;
48522;SDS011;34315;50.150;11.070;2023-04-03T03:17:12;6.13;;;2.22;;
48522;SDS011;34315;50.150;11.070;2023-04-03T03:22:13;4.82;;;2.20;;
48522;SDS011;34315;50.150;11.070;2023-04-03T03:27:14;5.32;;;1.90;;
48522;SDS011;34315;50.150;11.070;2023-04-03T03:32:17;5.13;;;2.00;;
48522;SDS011;34315;50.150;11.070;2023-04-03T03:37:18;4.53;;;1.90;;
48522;SDS011;34315;50.150;11.070;2023-04-03T03:42:19;5.35;;;2.10;;
48522;SDS011;34315;50.150;11.070;2023-04-03T03:47:20;4.57;;;2.25;;
48522;SDS011;34315;50.150;11.070;2023-04-03T03:52:21;9.00;;;2.67;;
48522;SDS011;34315;50.150;11.070;2023-04-03T03:57:23;5.00;;;2.10;;
48522;SDS011;34315;50.150;11.070;2023-04-03T04:02:24;4.55;;;2.28;;
48522;SDS011;34315;50.150;11.070;2023-04-03T04:07:27;6.05;;;2.47;;
48522;SDS011;34315;50.150;11.070;2023-04-03T04:12:30;7.38;;;2.42;;
48522;SDS011;34315;50.150;11.070;2023-04-03T04:17:32;7.55;;;2.45;;
48522;SDS011;34315;50.150;11.070;2023-04-03T04:22:33;6.60;;;2.60;;
48522;SDS011;34315;50.150;11.070;2023-04-03T04:27:34;6.65;;;2.28;;
48522;SDS011;34315;50.150;11.070;2023-04-03T04:32:36;6.60;;;2.58;;
48522;SDS011;34315;50.150;11.070;2023-04-03T04:37:38;5.13;;;2.22;;
48522;SDS011;34315;50.150;11.070;2023-04-03T04:42:39;5.07;;;2.10;;
48522;SDS011;34315;50.150;11.070;2023-04-03T04:47:41;6.30;;;2.95;;
48522;SDS011;34315;50.150;11.070;2023-04-03T04:52:44;7.20;;;3.10;;
48522;SDS011;34315;50.150;11.070;2023-04-03T04:57:45;5.93;;;2.60;;
48522;SDS011;34315;50.150;11.070;2023-04-03T05:02:46;5.90;;;2.85;;
48522;SDS011;34315;50.150;11.070;2023-04-03T05:07:48;5.38;;;2.60;;
48522;SDS011;34315;50.150;11.070;2023-04-03T05:12:50;6.15;;;2.35;;
48522;SDS011;34315;50.150;11.070;2023-04-03T05:17:52;6.43;;;2.40;;
48522;SDS011;34315;50.150;11.070;2023-04-03T05:22:54;5.03;;;2.45;;
48522;SDS011;34315;50.150;11.070;2023-04-03T05:27:55;5.45;;;2.78;;
48522;SDS011;34315;50.150;11.070;2023-04-03T05:32:58;6.00;;;3.33;;
48522;SDS011;34315;50.150;11.070;2023-04-03T05:38:09;6.22;;;2.60;;
48522;SDS011;34315;50.150;11.070;2023-04-03T05:43:10;7.05;;;2.90;;
48522;SDS011;34315;50.150;11.070;2023-04-03T05:48:14;6.87;;;2.90;;
48522;SDS011;34315;50.150;11.070;2023-04-03T05:53:25;5.60;;;3.00;;
48522;SDS011;34315;50.150;11.070;2023-04-03T05:58:29;4.32;;;2.38;;
48522;SDS011;34315;50.150;11.070;2023-04-03T06:03:31;9.63;;;2.92;;
48522;SDS011;34315;50.150;11.070;2023-04-03T06:08:32;10.18;;;2.88;;
48522;SDS011;34315;50.150;11.070;2023-04-03T06:13:34;7.57;;;2.85;;
48522;SDS011;34315;50.150;11.070;2023-04-03T06:18:36;5.53;;;2.63;;
48522;SDS011;34315;50.150;11.070;2023-04-03T06:23:37;6.43;;;2.60;;
48522;SDS011;34315;50.150;11.070;2023-04-03T06:28:38;5.13;;;2.70;;
48522;SDS011;34315;50.150;11.070;2023-04-03T06:33:39;9.20;;;3.55;;
48522;SDS011;34315;50.150;11.070;2023-04-03T06:38:40;5.43;;;2.90;;
48522;SDS011;34315;50.150;11.070;2023-04-03T06:43:42;7.10;;;2.70;;
48522;SDS011;34315;50.150;11.070;2023-04-03T06:48:44;6.63;;;2.60;;
48522;SDS011;34315;50.150;11.070;2023-04-03T06:53:45;6.07;;;2.85;;
48522;SDS011;34315;50.150;11.070;2023-04-03T06:58:47;7.35;;;3.30;;
48522;SDS011;34315;50.150;11.070;2023-04-03T07:03:49;8.52;;;3.28;;
48522;SDS011;34315;50.150;11.070;2023-04-03T07:08:50;8.73;;;3.45;;
48522;SDS011;34315;50.150;11.070;2023-04-03T07:13:52;6.85;;;3.00;;
48522;SDS011;34315;50.150;11.070;2023-04-03T07:18:54;6.70;;;3.03;;
48522;SDS011;34315;50.150;11.070;2023-04-03T07:23:55;6.97;;;3.15;;
48522;SDS011;34315;50.150;11.070;2023-04-03T07:28:56;5.90;;;2.90;;
48522;SDS011;34315;50.150;11.070;2023-04-03T07:33:57;5.43;;;2.63;;
48522;SDS011;34315;50.150;11.070;2023-04-03T07:38:58;8.90;;;3.10;;
48522;SDS011;34315;50.150;11.070;2023-04-03T07:43:59;5.85;;;2.80;;
48522;SDS011;34315;50.150;11.070;2023-04-03T07:49:01;6.60;;;2.90;;
48522;SDS011;34315;50.150;11.070;2023-04-03T07:54:02;5.25;;;2.83;;
48522;SDS011;34315;50.150;11.070;2023-04-03T07:59:03;4.43;;;2.63;;
48522;SDS011;34315;50.150;11.070;2023-04-03T08:04:04;5.63;;;2.83;;
48522;SDS011;34315;50.150;11.070;2023-04-03T08:09:05;6.10;;;2.60;;
48522;SDS011;34315;50.150;11.070;2023-04-03T08:14:07;5.18;;;2.63;;
48522;SDS011;34315;50.150;11.070;2023-04-03T08:19:08;20.13;;;2.90;;
48522;SDS011;34315;50.150;11.070;2023-04-03T08:24:09;6.75;;;2.60;;
48522;SDS011;34315;50.150;11.070;2023-04-03T08:29:10;6.30;;;2.70;;
48522;SDS011;34315;50.150;11.070;2023-04-03T08:34:11;4.63;;;2.58;;
48522;SDS011;34315;50.150;11.070;2023-04-03T08:39:13;5.03;;;2.20;;
48522;SDS011;34315;50.150;11.070;2023-04-03T08:44:15;3.90;;;2.00;;
48522;SDS011;34315;50.150;11.070;2023-04-03T08:49:22;3.17;;;1.63;;
48522;SDS011;34315;50.150;11.070;2023-04-03T08:59:34;6.18;;;2.30;;
48522;SDS011;34315;50.150;11.070;2023-04-03T09:04:38;4.18;;;1.45;;
48522;SDS011;34315;50.150;11.070;2023-04-03T09:09:40;4.22;;;1.58;;
48522;SDS011;34315;50.150;11.070;2023-04-03T09:25:22;3.40;;;1.77;;
48522;SDS011;34315;50.150;11.070;2023-04-03T09:30:34;3.15;;;1.58;;
48522;SDS011;34315;50.150;11.070;2023-04-03T09:35:36;6.63;;;1.95;;
48522;SDS011;34315;50.150;11.070;2023-04-03T09:40:38;3.45;;;1.90;;
48522;SDS011;34315;50.150;11.070;2023-04-03T09:45:41;3.50;;;1.42;;
48522;SDS011;34315;50.150;11.070;2023-04-03T09:56:22;4.97;;;1.55;;
48522;SDS011;34315;50.150;11.070;2023-04-03T10:01:27;1.80;;;1.30;;
48522;SDS011;34315;50.150;11.070;2023-04-03T10:06:38;3.72;;;1.63;;
48522;SDS011;34315;50.150;11.070;2023-04-03T10:11:57;6.55;;;1.80;;
48522;SDS011;34315;50.150;11.070;2023-04-03T10:17:04;3.95;;;1.70;;
48522;SDS011;34315;50.150;11.070;2023-04-03T10:27:56;3.63;;;1.83;;
48522;SDS011;34315;50.150;11.070;2023-04-03T10:38:15;3.72;;;1.52;;
48522;SDS011;34315;50.150;11.070;2023-04-03T10:43:29;3.47;;;1.77;;
48522;SDS011;34315;50.150;11.070;2023-04-03T10:49:05;2.80;;;1.60;;
48522;SDS011;34315;50.150;11.070;2023-04-03T10:54:26;4.60;;;1.73;;
48522;SDS011;34315;50.150;11.070;2023-04-03T10:59:35;2.40;;;1.25;;
48522;SDS011;34315;50.150;11.070;2023-04-03T11:04:48;3.90;;;1.70;;
48522;SDS011;34315;50.150;11.070;2023-04-03T11:09:54;4.72;;;1.35;;
48522;SDS011;34315;50.150;11.070;2023-04-03T11:14:57;4.73;;;1.60;;
48522;SDS011;34315;50.150;11.070;2023-04-03T11:19:59;3.40;;;1.33;;
48522;SDS011;34315;50.150;11.070;2023-04-03T11:30:16;4.97;;;1.50;;
48522;SDS011;34315;50.150;11.070;2023-04-03T11:35:20;3.08;;;1.50;;
48522;SDS011;34315;50.150;11.070;2023-04-03T11:40:26;4.45;;;1.40;;
48522;SDS011;34315;50.150;11.070;2023-04-03T11:45:35;3.65;;;1.50;;
48522;SDS011;34315;50.150;11.070;2023-04-03T11:55:42;3.35;;;1.65;;
48522;SDS011;34315;50.150;11.070;2023-04-03T12:05:47;7.15;;;1.40;;
48522;SDS011;34315;50.150;11.070;2023-04-03T12:16:33;3.17;;;1.35;;
48522;SDS011;34315;50.150;11.070;2023-04-03T12:26:48;3.65;;;1.55;;
48522;SDS011;34315;50.150;11.070;2023-04-03T12:31:58;4.40;;;1.52;;
48522;SDS011;34315;50.150;11.070;2023-04-03T12:48:08;3.92;;;1.50;;
48522;SDS011;34315;50.150;11.070;2023-04-03T12:53:19;3.30;;;1.17;;
48522;SDS011;34315;50.150;11.070;2023-04-03T12:58:21;4.70;;;1.60;;
48522;SDS011;34315;50.150;11.070;2023-04-03T13:03:27;5.28;;;1.40;;
48522;SDS011;34315;50.150;11.070;2023-04-03T13:08:29;3.10;;;1.10;;
48522;SDS011;34315;50.150;11.070;2023-04-03T13:13:31;3.22;;;1.08;;
48522;SDS011;34315;50.150;11.070;2023-04-03T13:18:34;4.53;;;1.10;;
48522;SDS011;34315;50.150;11.070;2023-04-03T13:23:36;3.45;;;1.20;;
48522;SDS011;34315;50.150;11.070;2023-04-03T13:28:39;4.03;;;1.20;;
48522;SDS011;34315;50.150;11.070;2023-04-03T13:33:43;4.03;;;1.35;;
48522;SDS011;34315;50.150;11.070;2023-04-03T13:38:57;3.78;;;1.30;;
48522;SDS011;34315;50.150;11.070;2023-04-03T13:54:37;3.70;;;1.40;;
48522;SDS011;34315;50.150;11.070;2023-04-03T13:59:38;3.70;;;1.63;;
48522;SDS011;34315;50.150;11.070;2023-04-03T14:09:41;2.67;;;1.10;;
48522;SDS011;34315;50.150;11.070;2023-04-03T14:14:42;4.15;;;1.40;;
48522;SDS011;34315;50.150;11.070;2023-04-03T14:19:44;3.22;;;1.27;;
48522;SDS011;34315;50.150;11.070;2023-04-03T14:24:46;3.85;;;1.40;;
48522;SDS011;34315;50.150;11.070;2023-04-03T14:29:48;2.88;;;1.27;;
48522;SDS011;34315;50.150;11.070;2023-04-03T14:34:50;3.15;;;1.23;;
48522;SDS011;34315;50.150;11.070;2023-04-03T14:39:52;1.77;;;1.17;;
48522;SDS011;34315;50.150;11.070;2023-04-03T14:44:56;2.60;;;1.30;;
48522;SDS011;34315;50.150;11.070;2023-04-03T14:49:59;3.80;;;1.63;;
48522;SDS011;34315;50.150;11.070;2023-04-03T14:55:02;3.67;;;1.30;;
48522;SDS011;34315;50.150;11.070;2023-04-03T15:00:04;3.70;;;1.50;;
48522;SDS011;34315;50.150;11.070;2023-04-03T15:05:08;3.00;;;1.30;;
48522;SDS011;34315;50.150;11.070;2023-04-03T15:10:20;2.28;;;1.17;;
48522;SDS011;34315;50.150;11.070;2023-04-03T15:15:28;3.33;;;1.33;;
48522;SDS011;34315;50.150;11.070;2023-04-03T15:20:30;1.73;;;1.15;;
48522;SDS011;34315;50.150;11.070;2023-04-03T15:25:33;3.25;;;1.38;;
48522;SDS011;34315;50.150;11.070;2023-04-03T15:30:35;4.38;;;1.63;;
48522;SDS011;34315;50.150;11.070;2023-04-03T15:35:37;3.47;;;1.55;;
48522;SDS011;34315;50.150;11.070;2023-04-03T15:40:39;2.00;;;1.05;;
48522;SDS011;34315;50.150;11.070;2023-04-03T15:45:40;3.05;;;1.40;;
48522;SDS011;34315;50.150;11.070;2023-04-03T15:50:41;5.30;;;2.00;;
48522;SDS011;34315;50.150;11.070;2023-04-03T15:55:42;3.80;;;1.50;;
48522;SDS011;34315;50.150;11.070;2023-04-03T16:00:43;2.25;;;1.45;;
48522;SDS011;34315;50.150;11.070;2023-04-03T16:05:45;4.07;;;1.80;;
48522;SDS011;34315;50.150;11.070;2023-04-03T16:10:46;4.65;;;1.80;;
48522;SDS011;34315;50.150;11.070;2023-04-03T16:15:47;5.13;;;1.85;;
48522;SDS011;34315;50.150;11.070;2023-04-03T16:20:49;3.28;;;1.42;;
48522;SDS011;34315;50.150;11.070;2023-04-03T16:25:50;4.15;;;1.70;;
48522;SDS011;34315;50.150;11.070;2023-04-03T16:30:51;5.15;;;1.70;;
48522;SDS011;34315;50.150;11.070;2023-04-03T16:35:52;5.60;;;2.47;;
48522;SDS011;34315;50.150;11.070;2023-04-03T16:40:53;4.50;;;1.88;;
48522;SDS011;34315;50.150;11.070;2023-04-03T16:45:57;4.22;;;2.00;;
48522;SDS011;34315;50.150;11.070;2023-04-03T16:50:58;5.97;;;1.80;;
48522;SDS011;34315;50.150;11.070;2023-04-03T16:56:00;3.95;;;1.70;;
48522;SDS011;34315;50.150;11.070;2023-04-03T17:01:17;6.93;;;2.00;;
48522;SDS011;34315;50.150;11.070;2023-04-03T17:06:19;7.28;;;1.67;;
48522;SDS011;34315;50.150;11.070;2023-04-03T17:11:22;3.80;;;1.70;;
48522;SDS011;34315;50.150;11.070;2023-04-03T17:16:23;2.70;;;1.30;;
48522;SDS011;34315;50.150;11.070;2023-04-03T17:21:25;2.95;;;1.38;;
48522;SDS011;34315;50.150;11.070;2023-04-03T17:26:27;3.53;;;1.90;;
48522;SDS011;34315;50.150;11.070;2023-04-03T17:31:28;6.20;;;1.70;;
48522;SDS011;34315;50.150;11.070;2023-04-03T17:36:29;5.05;;;1.95;;
48522;SDS011;34315;50.150;11.070;2023-04-03T17:41:31;3.13;;;1.70;;
48522;SDS011;34315;50.150;11.070;2023-04-03T17:46:33;5.10;;;2.28;;
48522;SDS011;34315;50.150;11.070;2023-04-03T17:51:34;4.65;;;2.13;;
48522;SDS011;34315;50.150;11.070;2023-04-03T17:56:35;8.70;;;2.50;;
48522;SDS011;34315;50.150;11.070;2023-04-03T18:01:36;6.43;;;2.15;;
48522;SDS011;34315;50.150;11.070;2023-04-03T18:06:45;4.28;;;1.77;;
48522;SDS011;34315;50.150;11.070;2023-04-03T18:11:46;5.03;;;2.10;;
48522;SDS011;34315;50.150;11.070;2023-04-03T18:16:48;4.80;;;1.88;;
48522;SDS011;34315;50.150;11.070;2023-04-03T18:21:50;4.43;;;2.08;;
48522;SDS011;34315;50.150;11.070;2023-04-03T18:26:53;5.93;;;1.95;;
48522;SDS011;34315;50.150;11.070;2023-04-03T18:31:56;5.90;;;1.90;;
48522;SDS011;34315;50.150;11.070;2023-04-03T18:36:58;5.20;;;1.90;;
48522;SDS011;34315;50.150;11.070;2023-04-03T18:42:03;3.65;;;1.42;;
48522;SDS011;34315;50.150;11.070;2023-04-03T18:47:06;5.30;;;1.67;;
48522;SDS011;34315;50.150;11.070;2023-04-03T18:52:08;4.35;;;2.13;;
48522;SDS011;34315;50.150;11.070;2023-04-03T18:57:10;4.82;;;2.30;;
48522;SDS011;34315;50.150;11.070;2023-04-03T19:02:11;5.63;;;2.00;;
48522;SDS011;34315;50.150;11.070;2023-04-03T19:07:13;4.72;;;1.95;;
48522;SDS011;34315;50.150;11.070;2023-04-03T19:12:14;7.80;;;2.72;;
48522;SDS011;34315;50.150;11.070;2023-04-03T19:17:15;6.07;;;2.40;;
48522;SDS011;34315;50.150;11.070;2023-04-03T19:22:17;6.57;;;2.00;;
48522;SDS011;34315;50.150;11.070;2023-04-03T19:27:18;4.03;;;1.30;;
48522;SDS011;34315;50.150;11.070;2023-04-03T19:32:19;4.78;;;1.70;;
48522;SDS011;34315;50.150;11.070;2023-04-03T19:37:20;4.00;;;1.70;;
48522;SDS011;34315;50.150;11.070;2023-04-03T19:42:21;4.20;;;1.63;;
48522;SDS011;34315;50.150;11.070;2023-04-03T19:47:22;5.25;;;1.55;;
48522;SDS011;34315;50.150;11.070;2023-04-03T19:52:24;4.05;;;1.80;;
48522;SDS011;34315;50.150;11.070;2023-04-03T19:57:25;3.58;;;1.70;;
48522;SDS011;34315;50.150;11.070;2023-04-03T20:02:27;5.18;;;1.73;;
48522;SDS011;34315;50.150;11.070;2023-04-03T20:07:28;3.88;;;1.45;;
48522;SDS011;34315;50.150;11.070;2023-04-03T20:12:29;4.28;;;2.10;;
48522;SDS011;34315;50.150;11.070;2023-04-03T20:17:31;3.25;;;1.42;;
48522;SDS011;34315;50.150;11.070;2023-04-03T20:22:34;5.63;;;2.55;;
48522;SDS011;34315;50.150;11.070;2023-04-03T20:27:36;3.58;;;1.67;;
48522;SDS011;34315;50.150;11.070;2023-04-03T20:32:39;4.38;;;1.70;;
48522;SDS011;34315;50.150;11.070;2023-04-03T20:37:40;3.63;;;1.65;;
48522;SDS011;34315;50.150;11.070;2023-04-03T20:42:42;3.35;;;1.63;;
48522;SDS011;34315;50.150;11.070;2023-04-03T20:47:43;3.75;;;1.73;;
48522;SDS011;34315;50.150;11.070;2023-04-03T20:52:45;2.67;;;1.48;;
48522;SDS011;34315;50.150;11.070;2023-04-03T20:57:47;6.95;;;1.95;;
48522;SDS011;34315;50.150;11.070;2023-04-03T21:02:48;4.65;;;1.90;;
48522;SDS011;34315;50.150;11.070;2023-04-03T21:24:12;4.63;;;1.42;;
48522;SDS011;34315;50.150;11.070;2023-04-03T21:29:14;5.53;;;1.95;;
48522;SDS011;34315;50.150;11.070;2023-04-03T21:34:15;6.22;;;1.60;;
48522;SDS011;34315;50.150;11.070;2023-04-03T21:39:16;5.47;;;1.63;;
48522;SDS011;34315;50.150;11.070;2023-04-03T21:44:17;3.40;;;1.85;;
48522;SDS011;34315;50.150;11.070;2023-04-03T21:49:19;5.90;;;1.80;;
48522;SDS011;34315;50.150;11.070;2023-04-03T21:59:25;4.53;;;1.52;;
48522;SDS011;34315;50.150;11.070;2023-04-03T22:04:26;3.88;;;1.50;;
48522;SDS011;34315;50.150;11.070;2023-04-03T22:09:29;4.70;;;1.80;;
48522;SDS011;34315;50.150;11.070;2023-04-03T22:14:30;4.00;;;1.58;;
48522;SDS011;34315;50.150;11.070;2023-04-03T22:19:31;3.35;;;1.30;;
48522;SDS011;34315;50.150;11.070;2023-04-03T22:24:32;4.38;;;1.75;;
48522;SDS011;34315;50.150;11.070;2023-04-03T22:29:33;4.97;;;1.80;;
48522;SDS011;34315;50.150;11.070;2023-04-03T22:34:35;4.15;;;1.58;;
48522;SDS011;34315;50.150;11.070;2023-04-03T22:39:37;4.07;;;1.73;;
48522;SDS011;34315;50.150;11.070;2023-04-03T22:44:38;2.80;;;1.30;;
48522;SDS011;34315;50.150;11.070;2023-04-03T22:49:39;4.00;;;1.50;;
48522;SDS011;34315;50.150;11.070;2023-04-03T22:54:40;3.92;;;1.45;;
48522;SDS011;34315;50.150;11.070;2023-04-03T22:59:41;3.60;;;1.58;;
48522;SDS011;34315;50.150;11.070;2023-04-03T23:04:43;4.20;;;1.48;;
48522;SDS011;34315;50.150;11.070;2023-04-03T23:09:44;5.95;;;1.95;;
48522;SDS011;34315;50.150;11.070;2023-04-03T23:14:45;5.30;;;1.48;;
48522;SDS011;34315;50.150;11.070;2023-04-03T23:19:46;2.05;;;1.20;;
48522;SDS011;34315;50.150;11.070;2023-04-03T23:24:47;2.55;;;0.93;;
48522;SDS011;34315;50.150;11.070;2023-04-03T23:29:48;5.97;;;1.80;;
48522;SDS011;34315;50.150;11.070;2023-04-03T23:34:49;3.25;;;2.20;;
48522;SDS011;34315;50.150;11.070;2023-04-03T23:39:50;4.35;;;1.73;;
48522;SDS011;34315;50.150;11.070;2023-04-03T23:44:52;3.17;;;1.80;;
48522;SDS011;34315;50.150;11.070;2023-04-03T23:49:53;5.18;;;1.58;;
48522;SDS011;34315;50.150;11.070;2023-04-03T23:54:54;3.30;;;1.40;;
48522;SDS011;34315;50.150;11.070;2023-04-03T23:59:55;4.70;;;1.75;;
